Toledo, WA

5:21 PM PST on February 11, 2016 (GMT -0800)
Town | | Change Station
CLOSE
Current Station
Personal Weather Station
Location: Toledo, WA
Elevation: 105 ft
Nearby Weather Stations

Elev 105 ft 46.44 °N, 122.85 °W | Updated 9 seconds ago

Rain
Rain
53.2 °F
Feels Like 53.2 °F
N
0.0
Wind Variable Wind from WSW
Gusts 6.0 mph

Today
High -- | Low -- °F
--% Chance of Precip.
Yesterday
High -- | Low -- °F
Precip. -- in
Pressure 30.10 in
Visibility 5.0 miles
Clouds Mostly Cloudy 4500 ft
Mostly Cloudy 5500 ft
Mostly Cloudy 6500 ft
Dew Point -16 °F
Humidity 5%
Rainfall 0.17 in
Snow Depth Not available.
7:21 AM 5:30 PM
Waxing Crescent, 16% visible
METAR KCLS 120115Z AUTO 19007KT 5SM -RA BKN045 BKN055 BKN065 12/12 A3010 RMK AO2
Pressure 30.10 in
Visibility 5.0 miles
Clouds Mostly Cloudy 4500 ft
Mostly Cloudy 5500 ft
Mostly Cloudy 6500 ft
Dew Point -16 °F
Humidity 5%
Rainfall 0.17 in
Snow Depth Not available.
7:21 AM 5:30 PM
Waxing Crescent, 16% visible
METAR KCLS 120115Z AUTO 19007KT 5SM -RA BKN045 BKN055 BKN065 12/12 A3010 RMK AO2

10-Day Weather Forecast

Almanac

Astronomy

Feb. 11, 2016 Rise Set
Actual Time
Civil Twilight
Nautical Twilight
Astronomical Twilight
Moon
Length of Visible Light
Length of Day
Tomorrow will be .
, % of the Moon is Illuminated

Today's Extremes

State Highs State Lows

Community

WunderPhotos

Upload Photos

1,892,205 photos uploaded!

WunderBlog® & News

Nearby

Air Quality

  Air Quality AQ Index Pollutant
Not available.

Snow Depth

Station Depth Elevation

Earthquake Activity

City Distance Mag. Time & Date
Minimum magnitude displayed is 2.5.

Coastal Water Temperatures

Place Temperature

Stations

Nearby Weather Stations

Station Location Temp. Windchill Dew Point Humidity Wind Precip. Elev Updated Type
                   

Watches & Warnings

There are currently no watches in effect.